createdAt,value
2022-10-06T00:04:41.505Z,14.28
2022-10-06T00:09:44.815Z,14.32
2022-10-06T00:14:46.751Z,14.39
2022-10-06T00:19:48.712Z,14.33
2022-10-06T00:24:51.724Z,14.47
2022-10-06T00:29:53.656Z,14.57
2022-10-06T00:34:55.621Z,14.66
2022-10-06T00:39:59.124Z,14.66
2022-10-06T00:45:04.496Z,14.75
2022-10-06T00:50:07.616Z,14.89
2022-10-06T00:55:11.396Z,14.94
2022-10-06T01:00:14.102Z,15.10
2022-10-06T01:05:22.821Z,15.15
2022-10-06T01:10:26.059Z,15.13
2022-10-06T01:15:28.741Z,14.98
2022-10-06T01:20:31.278Z,14.99
2022-10-06T01:25:35.228Z,15.12
2022-10-06T01:30:42.221Z,15.21
2022-10-06T01:35:48.034Z,15.23
2022-10-06T01:40:52.737Z,15.22
2022-10-06T01:45:55.511Z,15.03
2022-10-06T01:50:57.465Z,14.89
2022-10-06T01:56:00.911Z,14.81
2022-10-06T02:01:05.344Z,14.71
2022-10-06T02:06:08.183Z,14.66
2022-10-06T02:11:12.057Z,14.62
2022-10-06T02:16:14.659Z,14.58
2022-10-06T02:21:18.903Z,14.64
2022-10-06T02:26:22.350Z,14.68
2022-10-06T02:31:24.625Z,14.69
2022-10-06T02:36:26.800Z,14.73
2022-10-06T02:41:30.203Z,14.80
2022-10-06T02:46:32.251Z,14.72
2022-10-06T02:51:34.533Z,14.86
2022-10-06T02:56:37.942Z,14.83
2022-10-06T03:01:40.208Z,14.98
2022-10-06T03:06:41.986Z,15.04
2022-10-06T03:11:46.060Z,15.24
2022-10-06T03:16:48.007Z,15.26
2022-10-06T03:21:50.010Z,15.25
2022-10-06T03:26:53.128Z,15.32
2022-10-06T03:31:58.620Z,15.40
2022-10-06T03:37:00.606Z,15.54
2022-10-06T03:42:04.439Z,15.52
2022-10-06T03:47:06.549Z,15.72
2022-10-06T03:52:08.819Z,15.62
2022-10-06T03:57:12.310Z,15.63
2022-10-06T04:02:14.430Z,15.61
2022-10-06T04:07:16.488Z,15.66
2022-10-06T04:12:19.842Z,15.76
2022-10-06T04:17:21.836Z,15.72
2022-10-06T04:22:23.848Z,15.75
2022-10-06T04:27:27.216Z,15.66
2022-10-06T04:32:28.867Z,15.68
2022-10-06T04:37:31.285Z,15.60
2022-10-06T04:42:35.384Z,15.41
2022-10-06T04:47:37.261Z,15.32
2022-10-06T04:52:39.490Z,15.39
2022-10-06T04:57:42.645Z,15.29
2022-10-06T05:02:44.678Z,15.29
2022-10-06T05:07:47.137Z,15.25
2022-10-06T05:12:50.344Z,15.21
2022-10-06T05:17:53.005Z,15.08
2022-10-06T05:22:54.700Z,15.11
2022-10-06T05:27:58.274Z,15.15
2022-10-06T05:33:00.238Z,15.06
2022-10-06T05:38:01.879Z,15.06
2022-10-06T05:43:04.826Z,14.98
2022-10-06T05:48:06.830Z,14.97
2022-10-06T05:53:08.651Z,14.99
2022-10-06T05:58:24.129Z,14.93
2022-10-06T06:03:33.103Z,14.74
2022-10-06T06:08:38.153Z,14.64
2022-10-06T06:13:45.563Z,14.50
2022-10-06T06:18:53.615Z,14.47
2022-10-06T06:24:03.520Z,14.49
2022-10-06T06:29:12.409Z,14.50
2022-10-06T06:34:21.648Z,14.55
2022-10-06T06:39:26.982Z,14.65
2022-10-06T06:44:37.585Z,14.72
2022-10-06T06:49:42.634Z,14.86
2022-10-06T06:54:54.584Z,15.24
2022-10-06T07:00:01.430Z,15.27
2022-10-06T07:05:06.925Z,14.98
2022-10-06T07:10:21.552Z,15.04
2022-10-06T07:15:27.961Z,15.16
2022-10-06T07:20:47.762Z,15.22
2022-10-06T07:25:57.219Z,15.08
2022-10-06T07:31:13.408Z,15.28
2022-10-06T07:36:17.317Z,15.23
2022-10-06T07:41:20.490Z,15.09
2022-10-06T07:46:24.809Z,15.26
2022-10-06T07:51:27.118Z,15.31
2022-10-06T07:56:29.289Z,15.48
2022-10-06T08:01:32.406Z,15.72
2022-10-06T08:06:34.989Z,15.74
2022-10-06T08:11:37.208Z,15.68
2022-10-06T08:16:41.050Z,15.63
2022-10-06T08:21:43.111Z,15.50
2022-10-06T08:26:45.204Z,15.80
2022-10-06T08:31:48.875Z,15.97
2022-10-06T08:37:08.751Z,16.03
2022-10-06T08:42:18.047Z,15.97
2022-10-06T08:47:23.233Z,15.94
2022-10-06T08:52:40.465Z,16.24
2022-10-06T08:58:02.269Z,16.39
2022-10-06T09:03:06.196Z,16.66
2022-10-06T09:08:22.154Z,16.66
2022-10-06T09:13:28.879Z,17.03
2022-10-06T09:18:56.524Z,17.08
2022-10-06T09:24:05.581Z,16.74
2022-10-06T09:29:07.209Z,16.95
2022-10-06T09:34:23.753Z,16.75
2022-10-06T09:39:28.856Z,17.16
2022-10-06T09:44:34.202Z,18.30
2022-10-06T09:49:37.671Z,21.16
2022-10-06T09:54:39.826Z,21.55
2022-10-06T09:59:44.264Z,23.89
2022-10-06T10:04:51.459Z,18.48
2022-10-06T10:09:55.131Z,19.87
2022-10-06T10:15:00.955Z,20.74
2022-10-06T10:20:19.810Z,25.84
2022-10-06T10:25:39.711Z,27.20
2022-10-06T10:30:51.124Z,28.16
2022-10-06T10:35:56.968Z,23.91
2022-10-06T10:41:02.601Z,25.05
2022-10-06T10:46:11.761Z,26.32
2022-10-06T10:51:20.289Z,27.97
2022-10-06T10:56:26.342Z,24.55
2022-10-06T11:01:37.446Z,25.43
2022-10-06T11:06:54.910Z,22.31
2022-10-06T11:12:17.960Z,21.69
2022-10-06T11:17:33.518Z,21.38
2022-10-06T11:22:43.888Z,20.39
2022-10-06T11:27:54.522Z,20.68
2022-10-06T11:33:09.113Z,19.88
2022-10-06T11:38:17.961Z,20.17
2022-10-06T11:43:30.704Z,20.07
2022-10-06T11:48:32.964Z,19.89
2022-10-06T11:53:41.169Z,20.67
2022-10-06T11:59:28.065Z,19.92
2022-10-06T12:04:30.186Z,19.15
2022-10-06T12:09:53.754Z,19.05
2022-10-06T12:20:32.858Z,18.54
2022-10-06T12:25:41.292Z,19.20
2022-10-06T12:30:56.530Z,18.98
2022-10-06T12:36:02.077Z,19.41
2022-10-06T12:41:10.374Z,19.59
2022-10-06T12:46:20.297Z,19.55
2022-10-06T12:51:30.227Z,19.77
2022-10-06T12:56:38.522Z,19.52
2022-10-06T13:01:41.002Z,19.18
2022-10-06T13:06:49.658Z,19.12
2022-10-06T13:11:53.306Z,19.06
2022-10-06T13:16:58.499Z,19.12
2022-10-06T13:22:02.922Z,19.38
2022-10-06T13:27:07.121Z,19.35
2022-10-06T13:32:17.867Z,19.35
2022-10-06T13:37:20.263Z,19.32
2022-10-06T13:42:30.916Z,19.34
2022-10-06T13:47:32.743Z,19.16
2022-10-06T13:52:39.874Z,19.37
2022-10-06T13:57:45.881Z,19.36
2022-10-06T14:02:49.861Z,19.23
2022-10-06T14:07:52.446Z,19.09
2022-10-06T14:12:56.161Z,19.15
2022-10-06T14:18:00.527Z,19.28
2022-10-06T14:23:02.725Z,19.19
2022-10-06T14:28:05.764Z,19.10
2022-10-06T14:33:08.356Z,19.01
2022-10-06T14:38:10.273Z,19.10
2022-10-06T14:43:13.732Z,19.31
2022-10-06T14:48:15.702Z,19.11
2022-10-06T14:53:17.672Z,19.02
2022-10-06T14:58:21.182Z,18.93
2022-10-06T15:03:23.439Z,18.80
2022-10-06T15:08:26.361Z,18.80
2022-10-06T15:13:29.416Z,18.53
2022-10-06T15:18:31.357Z,18.19
2022-10-06T15:23:33.477Z,18.08
2022-10-06T15:28:36.726Z,17.92
2022-10-06T15:33:38.431Z,17.66
2022-10-06T15:38:40.099Z,17.53
2022-10-06T15:43:43.426Z,17.31
2022-10-06T15:48:45.169Z,17.10
2022-10-06T15:53:47.029Z,16.88
2022-10-06T15:58:50.380Z,16.58
2022-10-06T16:03:52.054Z,16.30
2022-10-06T16:08:54.293Z,16.06
2022-10-06T16:14:00.330Z,15.90
2022-10-06T16:19:02.496Z,15.62
2022-10-06T16:24:04.911Z,15.43
2022-10-06T16:29:08.216Z,15.13
2022-10-06T16:34:10.155Z,14.79
2022-10-06T16:39:14.951Z,14.45
2022-10-06T16:44:19.548Z,14.08
2022-10-06T16:49:21.201Z,13.75
2022-10-06T16:54:23.267Z,13.52
2022-10-06T16:59:26.565Z,13.23
2022-10-06T17:04:28.280Z,12.84
2022-10-06T17:09:30.558Z,12.37
2022-10-06T17:14:33.911Z,12.12
2022-10-06T17:19:36.070Z,11.90
2022-10-06T17:24:37.711Z,11.62
2022-10-06T17:29:40.710Z,11.36
2022-10-06T17:34:42.407Z,11.08
2022-10-06T17:39:47.083Z,10.93
2022-10-06T17:44:50.330Z,10.78
2022-10-06T17:49:52.324Z,10.62
2022-10-06T17:54:54.407Z,10.56
2022-10-06T17:59:57.554Z,10.31
2022-10-06T18:04:59.201Z,10.00
2022-10-06T18:10:01.057Z,9.89
2022-10-06T18:15:04.615Z,9.83
2022-10-06T18:20:06.858Z,9.71
2022-10-06T18:25:08.836Z,9.61
2022-10-06T18:30:12.764Z,9.46
2022-10-06T18:40:36.736Z,9.47
2022-10-06T18:45:40.055Z,9.15
2022-10-06T18:50:41.745Z,9.05
2022-10-06T18:55:44.378Z,8.80
2022-10-06T19:00:47.598Z,8.69
2022-10-06T19:05:52.418Z,8.90
2022-10-06T19:10:54.503Z,8.70
2022-10-06T19:15:58.532Z,8.48
2022-10-06T19:21:00.183Z,8.45
2022-10-06T19:26:02.967Z,8.27
2022-10-06T19:31:13.066Z,8.33
2022-10-06T19:36:15.919Z,8.04
2022-10-06T19:41:17.899Z,7.97
2022-10-06T19:46:21.436Z,8.04
2022-10-06T19:51:24.241Z,7.87
2022-10-06T19:56:26.072Z,7.75
2022-10-06T20:01:29.448Z,7.65
2022-10-06T20:06:31.840Z,7.49
2022-10-06T20:11:34.328Z,7.40
2022-10-06T20:16:38.247Z,7.49
2022-10-06T20:21:42.366Z,7.34
2022-10-06T20:26:46.094Z,7.26
2022-10-06T20:31:51.148Z,7.08
2022-10-06T20:36:56.156Z,7.09
2022-10-06T20:41:58.333Z,7.09
2022-10-06T20:47:01.953Z,6.86
2022-10-06T20:52:04.824Z,6.82
2022-10-06T20:57:09.547Z,6.70
2022-10-06T21:02:13.013Z,6.63
2022-10-06T21:07:14.718Z,6.80
2022-10-06T21:12:16.713Z,6.60
2022-10-06T21:17:20.128Z,6.44
2022-10-06T21:22:22.284Z,6.45
2022-10-06T21:27:24.288Z,6.41
2022-10-06T21:32:27.908Z,6.34
2022-10-06T21:37:29.637Z,6.26
2022-10-06T21:42:31.382Z,6.19
2022-10-06T21:47:35.016Z,6.07
2022-10-06T21:52:37.321Z,6.20
2022-10-06T21:57:39.303Z,5.99
2022-10-06T22:02:42.474Z,5.97
2022-10-06T22:07:46.679Z,5.89
2022-10-06T22:12:49.241Z,5.80
2022-10-06T22:17:52.625Z,5.69
2022-10-06T22:22:54.307Z,5.58
2022-10-06T22:27:56.155Z,5.60
2022-10-06T22:32:59.641Z,5.61
2022-10-06T22:38:01.783Z,5.45
2022-10-06T22:43:03.934Z,5.39
2022-10-06T22:48:07.326Z,5.25
2022-10-06T22:53:10.400Z,5.16
2022-10-06T22:58:13.349Z,5.12
2022-10-06T23:03:17.327Z,5.15
2022-10-06T23:08:19.396Z,5.10
2022-10-06T23:13:21.989Z,5.02
2022-10-06T23:18:25.474Z,4.94
2022-10-06T23:23:27.163Z,5.07
2022-10-06T23:28:29.364Z,4.84
2022-10-06T23:33:32.864Z,4.74
2022-10-06T23:38:35.736Z,4.81
2022-10-06T23:43:37.781Z,4.64
2022-10-06T23:48:41.255Z,4.71
2022-10-06T23:53:44.325Z,4.62
2022-10-06T23:58:46.960Z,4.55
